Time;durP1;ratioP1;P1;durP2;ratioP2;P2;SDS_P1;SDS_P2;PMS_P1;PMS_P2;Temp;Humidity;BMP_temperature;BMP_pressure;BME280_temperature;BME280_humidity;BME280_pressure;Samples;Min_cycle;Max_cycle;Signal;HPM_P1;HPM_P2
2023/06/08 00:02:15;;;;;;;22.27;20.50;;;16.70;99.90;;;;;;5206154;28;20067;-70
2023/06/08 00:04:46;;;;;;;21.95;20.00;;;16.50;99.90;;;;;;5205876;28;20203;-70
2023/06/08 00:07:18;;;;;;;22.40;19.58;;;16.60;99.90;;;;;;5205970;28;20022;-69
2023/06/08 00:09:50;;;;;;;21.90;20.20;;;16.70;99.90;;;;;;5205642;28;20531;-69
2023/06/08 00:12:22;;;;;;;22.05;19.90;;;16.50;99.90;;;;;;5206184;28;20099;-68
2023/06/08 00:14:53;;;;;;;23.35;21.48;;;16.50;99.90;;;;;;5205881;28;20482;-70
2023/06/08 00:17:23;;;;;;;22.02;20.20;;;16.60;99.90;;;;;;5205927;28;20020;-69
2023/06/08 00:19:56;;;;;;;23.05;21.02;;;16.60;99.90;;;;;;5205952;28;20041;-70
2023/06/08 00:22:27;;;;;;;20.42;18.73;;;16.50;99.90;;;;;;5205868;28;20018;-70
2023/06/08 00:24:58;;;;;;;18.88;17.15;;;16.50;99.90;;;;;;5205781;28;20065;-70
2023/06/08 00:27:29;;;;;;;22.23;20.48;;;16.60;99.90;;;;;;5205748;28;20402;-70
2023/06/08 00:30:00;;;;;;;19.15;17.55;;;16.60;99.90;;;;;;5205726;28;20040;-70
2023/06/08 00:32:31;;;;;;;21.63;19.73;;;16.40;99.90;;;;;;5205687;28;20022;-69
2023/06/08 00:35:03;;;;;;;20.90;19.00;;;16.40;99.90;;;;;;5205567;28;20040;-69
2023/06/08 00:37:36;;;;;;;21.65;19.80;;;16.60;99.90;;;;;;5205632;28;20496;-69
2023/06/08 00:40:07;;;;;;;19.92;17.95;;;16.60;99.90;;;;;;5205549;28;20098;-70
2023/06/08 00:42:38;;;;;;;21.35;19.75;;;16.40;99.90;;;;;;5205346;28;20049;-70
2023/06/08 00:45:10;;;;;;;21.35;19.83;;;16.40;99.90;;;;;;5205487;28;20091;-69
2023/06/08 00:47:41;;;;;;;20.80;19.15;;;16.40;99.90;;;;;;5205666;28;20071;-70
2023/06/08 00:50:12;;;;;;;19.95;18.35;;;16.50;99.90;;;;;;5205561;28;20026;-70
2023/06/08 00:52:44;;;;;;;20.75;19.05;;;16.50;99.90;;;;;;5205577;28;20026;-70
2023/06/08 00:55:19;;;;;;;20.77;18.67;;;16.60;99.90;;;;;;5205429;28;20087;-70
2023/06/08 00:57:51;;;;;;;20.70;18.80;;;16.50;99.90;;;;;;5205449;28;20437;-70
2023/06/08 01:00:24;;;;;;;21.98;20.02;;;16.60;99.90;;;;;;5205385;28;20052;-70
2023/06/08 01:02:57;;;;;;;20.75;18.85;;;16.50;99.90;;;;;;5205264;28;20029;-70
2023/06/08 01:05:27;;;;;;;19.63;17.67;;;16.40;99.90;;;;;;5205298;28;20453;-70
2023/06/08 01:08:27;;;;;;;21.08;19.00;;;16.40;99.90;;;;;;5205358;28;20132;-69
2023/06/08 01:11:11;;;;;;;19.45;17.90;;;16.50;99.90;;;;;;5205322;28;20107;-70
2023/06/08 01:14:24;;;;;;;21.38;19.48;;;16.60;99.90;;;;;;5205165;28;20033;-69
2023/06/08 01:17:00;;;;;;;20.02;17.98;;;16.40;99.90;;;;;;5166767;28;20107;-70
2023/06/08 01:19:52;;;;;;;20.63;18.67;;;16.40;99.90;;;;;;5205599;28;20496;-69
2023/06/08 01:22:34;;;;;;;22.08;20.08;;;16.40;99.90;;;;;;5209397;28;20021;-70
2023/06/08 01:25:07;;;;;;;21.75;19.63;;;16.50;99.90;;;;;;5209514;28;20108;-69
2023/06/08 01:27:38;;;;;;;21.55;19.45;;;16.50;99.90;;;;;;5209298;28;20021;-70
2023/06/08 01:30:10;;;;;;;23.85;21.45;;;16.50;99.90;;;;;;5208937;28;20021;-69
2023/06/08 01:32:44;;;;;;;21.00;18.98;;;16.30;99.90;;;;;;5208908;28;20421;-69
2023/06/08 01:35:15;;;;;;;20.52;18.15;;;16.50;99.90;;;;;;5208743;28;20041;-70
2023/06/08 01:37:52;;;;;;;21.35;19.10;;;16.40;99.90;;;;;;5208838;28;20365;-70
2023/06/08 01:40:35;;;;;;;22.40;20.90;;;16.60;99.90;;;;;;5208881;28;20072;-69
2023/06/08 01:43:08;;;;;;;24.27;22.23;;;16.60;99.90;;;;;;5208525;28;20513;-70
2023/06/08 01:45:46;;;;;;;23.30;20.92;;;16.70;99.90;;;;;;5191029;28;20021;-70
2023/06/08 01:48:21;;;;;;;24.15;21.95;;;16.50;99.90;;;;;;5208725;28;20052;-70
2023/06/08 01:50:53;;;;;;;25.33;22.63;;;16.50;99.90;;;;;;5208648;28;20079;-70
2023/06/08 01:53:24;;;;;;;22.27;20.38;;;16.40;99.90;;;;;;5208182;28;20025;-69
2023/06/08 01:55:55;;;;;;;20.90;18.88;;;16.50;99.90;;;;;;5208169;28;20048;-70
2023/06/08 01:58:26;;;;;;;23.00;20.83;;;16.40;99.90;;;;;;5208360;28;20018;-70
2023/06/08 02:00:57;;;;;;;26.23;23.80;;;16.50;99.90;;;;;;5208306;28;20025;-70
2023/06/08 02:03:27;;;;;;;25.70;23.23;;;16.50;99.90;;;;;;5208332;28;20022;-70
2023/06/08 02:05:58;;;;;;;25.60;23.27;;;16.60;99.90;;;;;;5208274;28;20100;-70
2023/06/08 02:08:29;;;;;;;28.45;25.85;;;16.50;99.90;;;;;;5208121;28;20083;-70
2023/06/08 02:11:00;;;;;;;27.55;24.63;;;16.60;99.90;;;;;;5208053;28;20087;-70
2023/06/08 02:13:34;;;;;;;24.45;22.02;;;16.70;99.90;;;;;;5190389;28;20026;-70
2023/06/08 02:16:05;;;;;;;24.98;22.90;;;16.50;99.90;;;;;;5207976;28;20397;-69
2023/06/08 02:18:40;;;;;;;28.83;26.48;;;16.70;99.90;;;;;;5207988;28;20026;-70
2023/06/08 02:21:11;;;;;;;30.63;27.85;;;16.80;99.90;;;;;;5207796;28;20377;-70
2023/06/08 02:23:42;;;;;;;27.30;24.83;;;16.80;99.90;;;;;;5207820;28;20022;-70
2023/06/08 02:26:13;;;;;;;24.50;22.40;;;16.90;99.90;;;;;;5207937;28;20484;-70
2023/06/08 02:28:44;;;;;;;24.52;22.15;;;16.70;99.90;;;;;;5207823;28;20032;-70
2023/06/08 02:31:15;;;;;;;24.20;21.85;;;16.70;99.90;;;;;;5207640;28;20537;-70
2023/06/08 02:33:46;;;;;;;21.60;19.55;;;16.80;99.90;;;;;;5207229;28;20075;-70
2023/06/08 02:36:17;;;;;;;21.02;19.20;;;16.90;99.90;;;;;;5207749;28;20025;-70
2023/06/08 02:38:48;;;;;;;22.27;20.13;;;16.90;99.90;;;;;;5207660;28;20022;-69
2023/06/08 02:41:19;;;;;;;22.45;20.55;;;16.90;99.90;;;;;;5207612;28;20030;-69
2023/06/08 02:43:49;;;;;;;22.50;20.50;;;16.90;99.90;;;;;;5207905;28;20770;-69
2023/06/08 02:46:20;;;;;;;23.10;21.13;;;17.00;99.90;;;;;;5207759;28;20366;-70
2023/06/08 02:48:51;;;;;;;22.48;20.42;;;17.00;99.90;;;;;;5207552;28;20087;-69
2023/06/08 02:51:22;;;;;;;19.92;18.05;;;17.00;99.90;;;;;;5207431;28;20489;-70
2023/06/08 02:53:53;;;;;;;23.25;21.20;;;17.00;99.90;;;;;;5207190;28;20470;-70
2023/06/08 02:56:27;;;;;;;20.52;18.50;;;17.10;99.90;;;;;;5207240;28;20112;-70
2023/06/08 02:58:57;;;;;;;22.27;19.95;;;17.00;99.90;;;;;;5189617;28;20030;-70
2023/06/08 03:01:30;;;;;;;20.95;18.90;;;17.10;99.90;;;;;;5207253;28;20131;-70
2023/06/08 03:04:01;;;;;;;22.15;20.08;;;17.20;99.90;;;;;;5207071;28;20026;-69
2023/06/08 03:06:36;;;;;;;21.05;19.10;;;17.20;99.90;;;;;;5207047;28;20033;-69
2023/06/08 03:09:07;;;;;;;23.70;21.42;;;17.20;99.90;;;;;;5207138;28;20108;-70
2023/06/08 03:11:38;;;;;;;22.88;20.65;;;17.50;99.90;;;;;;5206892;28;20040;-70
2023/06/08 03:14:10;;;;;;;22.15;19.95;;;17.30;99.90;;;;;;5206886;28;20029;-70
2023/06/08 03:16:41;;;;;;;22.20;20.10;;;17.30;99.90;;;;;;5206832;28;20034;-70
2023/06/08 03:19:14;;;;;;;22.63;20.63;;;17.30;99.90;;;;;;5206690;28;20049;-70
2023/06/08 03:21:49;;;;;;;22.40;20.60;;;17.40;99.90;;;;;;5206760;28;20028;-70
2023/06/08 03:24:20;;;;;;;24.25;21.73;;;17.60;99.90;;;;;;5206781;28;20048;-70
2023/06/08 03:26:51;;;;;;;24.58;22.17;;;17.80;99.90;;;;;;5206565;28;20565;-70
2023/06/08 03:29:22;;;;;;;22.50;20.40;;;17.80;99.90;;;;;;5206638;28;20021;-70
2023/06/08 03:31:53;;;;;;;21.30;19.40;;;17.90;99.90;;;;;;5206461;28;20032;-70
2023/06/08 03:34:27;;;;;;;21.58;19.40;;;17.90;99.90;;;;;;5206467;28;20025;-70
2023/06/08 03:36:57;;;;;;;24.00;19.67;;;17.90;99.90;;;;;;5206473;28;20073;-70
2023/06/08 03:39:28;;;;;;;22.05;19.90;;;18.00;99.90;;;;;;5206567;28;20829;-69
2023/06/08 03:41:59;;;;;;;22.25;19.92;;;17.90;99.90;;;;;;5188319;28;20541;-70
2023/06/08 03:44:30;;;;;;;23.80;21.55;;;18.00;99.90;;;;;;5205417;28;20041;-70
2023/06/08 03:47:01;;;;;;;24.52;20.25;;;18.00;99.90;;;;;;5206344;28;20022;-70
2023/06/08 03:49:32;;;;;;;22.55;20.25;;;18.20;99.90;;;;;;5188713;28;20083;-69
2023/06/08 03:52:04;;;;;;;22.58;20.25;;;18.20;99.90;;;;;;5206178;28;20025;-70
2023/06/08 03:54:35;;;;;;;24.17;21.63;;;18.20;99.90;;;;;;5188536;28;20489;-70
2023/06/08 03:57:06;;;;;;;23.70;21.40;;;18.40;99.90;;;;;;5206236;28;20022;-70
2023/06/08 03:59:38;;;;;;;23.60;21.35;;;18.50;99.90;;;;;;5206149;28;20036;-69
2023/06/08 04:02:09;;;;;;;24.98;23.08;;;18.70;99.90;;;;;;5206129;28;20040;-69
2023/06/08 04:04:39;;;;;;;27.30;22.95;;;18.60;99.90;;;;;;5206218;28;20026;-70
2023/06/08 04:07:11;;;;;;;24.33;21.90;;;18.70;99.90;;;;;;5206030;28;20036;-71
2023/06/08 04:09:42;;;;;;;23.65;21.23;;;18.90;99.90;;;;;;5206002;28;20053;-70
2023/06/08 04:12:13;;;;;;;24.17;22.27;;;19.00;99.90;;;;;;5205789;28;20048;-70
2023/06/08 04:14:45;;;;;;;25.13;22.65;;;19.00;99.90;;;;;;5205912;28;20121;-70
2023/06/08 04:17:16;;;;;;;22.48;20.15;;;19.00;99.90;;;;;;5205866;28;20084;-70
2023/06/08 04:19:46;;;;;;;26.70;24.42;;;19.10;99.90;;;;;;5205993;28;20026;-70
2023/06/08 04:22:17;;;;;;;24.85;22.77;;;19.20;99.90;;;;;;5205962;28;20014;-70
2023/06/08 04:24:48;;;;;;;26.25;23.17;;;19.20;99.90;;;;;;5205884;28;20543;-69
2023/06/08 04:27:19;;;;;;;24.83;22.90;;;19.20;99.90;;;;;;5205843;28;20377;-70
2023/06/08 04:29:52;;;;;;;23.77;21.33;;;19.20;99.90;;;;;;5205756;28;20043;-70
2023/06/08 04:32:23;;;;;;;22.52;20.27;;;19.30;99.90;;;;;;5205664;28;20041;-71
2023/06/08 04:34:54;;;;;;;24.67;22.17;;;19.20;99.90;;;;;;5205658;28;20038;-70
2023/06/08 04:37:26;;;;;;;24.17;21.80;;;19.10;99.90;;;;;;5205595;28;20076;-70
2023/06/08 04:39:57;;;;;;;25.17;22.23;;;19.30;99.90;;;;;;5205592;28;20431;-70
2023/06/08 04:42:29;;;;;;;21.48;19.40;;;19.50;99.90;;;;;;5205406;28;20091;-70
2023/06/08 04:45:03;;;;;;;21.55;19.95;;;19.40;99.90;;;;;;5205579;28;20128;-70
2023/06/08 04:47:40;;;;;;;20.95;19.00;;;19.30;99.90;;;;;;5205643;28;20116;-70
2023/06/08 04:50:11;;;;;;;20.92;19.00;;;19.20;99.90;;;;;;5205408;28;20029;-70
2023/06/08 04:52:45;;;;;;;23.75;21.67;;;19.20;99.90;;;;;;5205528;28;20113;-70
2023/06/08 04:55:16;;;;;;;25.48;22.55;;;19.20;99.90;;;;;;5206449;28;20033;-70
2023/06/08 04:57:47;;;;;;;24.20;21.88;;;19.20;99.90;;;;;;5209505;28;20394;-70
2023/06/08 05:00:18;;;;;;;26.58;24.25;;;19.30;99.90;;;;;;5209455;28;20040;-69
2023/06/08 05:02:49;;;;;;;25.35;23.00;;;19.30;99.90;;;;;;5209303;28;20044;-70
2023/06/08 05:05:20;;;;;;;23.88;21.88;;;19.30;99.90;;;;;;5209430;28;20029;-69
2023/06/08 05:07:51;;;;;;;24.63;22.58;;;19.30;99.90;;;;;;5209417;28;20024;-70
2023/06/08 05:10:22;;;;;;;24.67;22.45;;;19.40;99.90;;;;;;5209306;28;20109;-69
2023/06/08 05:12:55;;;;;;;22.70;20.63;;;19.30;99.90;;;;;;5209460;28;20105;-70
2023/06/08 05:15:26;;;;;;;23.38;21.23;;;19.40;99.90;;;;;;5209362;28;20080;-70
2023/06/08 05:17:58;;;;;;;25.77;23.58;;;19.30;99.90;;;;;;5191608;28;20108;-70
2023/06/08 05:20:29;;;;;;;23.27;21.52;;;19.30;99.90;;;;;;5209193;28;20021;-70
2023/06/08 05:23:00;;;;;;;24.55;22.65;;;19.30;99.90;;;;;;5209117;28;20128;-70
2023/06/08 05:25:31;;;;;;;24.45;22.15;;;19.50;99.90;;;;;;5209203;28;20466;-69
2023/06/08 05:28:03;;;;;;;21.50;19.30;;;19.70;99.90;;;;;;5209016;28;20025;-70
2023/06/08 05:30:33;;;;;;;22.38;20.33;;;19.60;99.90;;;;;;5209007;28;20062;-70
2023/06/08 05:33:05;;;;;;;22.80;20.67;;;19.60;99.90;;;;;;5208803;28;20043;-68
2023/06/08 05:35:35;;;;;;;23.52;21.27;;;20.00;99.90;;;;;;5208815;28;20127;-70
2023/06/08 05:38:06;;;;;;;23.40;21.27;;;20.10;99.90;;;;;;5208897;28;20061;-70
2023/06/08 05:40:37;;;;;;;25.60;23.40;;;20.40;99.90;;;;;;5208777;28;20437;-70
2023/06/08 05:43:08;;;;;;;27.60;25.08;;;20.60;99.90;;;;;;5208582;28;20545;-70
2023/06/08 05:45:39;;;;;;;25.65;23.23;;;20.40;99.90;;;;;;5208665;28;20022;-70
2023/06/08 05:48:10;;;;;;;29.20;26.98;;;20.40;99.90;;;;;;5208635;28;20025;-70
2023/06/08 05:50:41;;;;;;;31.27;28.67;;;20.30;99.90;;;;;;5208473;28;20029;-70
2023/06/08 05:53:12;;;;;;;30.80;28.55;;;20.20;99.90;;;;;;5208680;28;20405;-70
2023/06/08 05:55:44;;;;;;;31.83;29.27;;;20.20;99.90;;;;;;5208266;28;20026;-70
2023/06/08 05:58:16;;;;;;;32.15;29.67;;;20.70;99.90;;;;;;5208426;28;20036;-70
2023/06/08 06:00:47;;;;;;;30.83;28.50;;;20.90;99.90;;;;;;5208351;28;20373;-70
2023/06/08 06:03:19;;;;;;;33.10;29.85;;;21.00;99.90;;;;;;5208217;28;20032;-70
2023/06/08 06:05:50;;;;;;;29.48;27.48;;;21.00;99.90;;;;;;5208247;28;20362;-70
2023/06/08 06:08:21;;;;;;;30.52;28.13;;;20.90;99.90;;;;;;5207185;28;20075;-69
2023/06/08 06:10:52;;;;;;;31.15;28.83;;;20.80;99.90;;;;;;5208032;28;20465;-70
2023/06/08 06:13:23;;;;;;;33.35;30.70;;;21.00;99.90;;;;;;5190372;28;20497;-69
2023/06/08 06:15:54;;;;;;;34.10;31.45;;;21.20;99.90;;;;;;5207931;28;20029;-70
2023/06/08 06:18:25;;;;;;;32.03;29.63;;;21.40;99.90;;;;;;5207967;28;20041;-69
2023/06/08 06:20:56;;;;;;;31.27;29.27;;;21.40;99.90;;;;;;5207958;28;20497;-70
2023/06/08 06:23:26;;;;;;;29.90;27.58;;;21.70;99.90;;;;;;5207849;28;20034;-70
2023/06/08 06:25:57;;;;;;;25.67;23.77;;;21.40;99.90;;;;;;5207884;28;20059;-70
2023/06/08 06:28:28;;;;;;;26.98;24.90;;;21.10;99.90;;;;;;5207989;28;20382;-70
2023/06/08 06:30:59;;;;;;;25.88;23.83;;;21.10;99.90;;;;;;5208290;28;20025;-70
2023/06/08 06:33:30;;;;;;;24.75;23.05;;;21.10;99.90;;;;;;5207936;28;20429;-69
2023/06/08 06:36:01;;;;;;;26.55;24.55;;;21.00;99.90;;;;;;5207724;28;20374;-70
2023/06/08 06:38:32;;;;;;;27.67;25.67;;;21.10;99.90;;;;;;5207882;28;20017;-70
2023/06/08 06:41:03;;;;;;;25.73;23.60;;;21.00;99.90;;;;;;5207565;28;20022;-70
2023/06/08 06:43:34;;;;;;;26.45;24.38;;;21.20;99.90;;;;;;5207418;28;20124;-70
2023/06/08 06:46:05;;;;;;;25.90;24.13;;;21.20;99.90;;;;;;5207696;28;20128;-70
2023/06/08 06:48:35;;;;;;;25.38;23.40;;;21.20;99.90;;;;;;5207517;28;20112;-69
2023/06/08 06:51:06;;;;;;;23.75;21.88;;;21.20;99.90;;;;;;5207482;28;20032;-70
2023/06/08 06:53:37;;;;;;;24.85;22.95;;;21.40;99.90;;;;;;5189598;28;20482;-70
2023/06/08 06:56:08;;;;;;;24.95;22.88;;;21.70;99.90;;;;;;5207229;28;20127;-69
2023/06/08 06:58:44;;;;;;;26.70;24.48;;;21.90;99.90;;;;;;5207306;28;20369;-70
2023/06/08 07:01:18;;;;;;;22.88;20.80;;;22.10;99.90;;;;;;5207211;28;20040;-70
2023/06/08 07:03:49;;;;;;;23.58;21.70;;;21.90;99.90;;;;;;5207168;28;20100;-69
2023/06/08 07:06:23;;;;;;;23.23;20.95;;;22.10;99.90;;;;;;5189281;28;20044;-69
2023/06/08 07:08:54;;;;;;;23.10;21.38;;;22.00;99.90;;;;;;5207069;28;20381;-70
2023/06/08 07:11:26;;;;;;;21.77;19.95;;;22.10;99.90;;;;;;5206904;28;20108;-70
2023/06/08 07:13:57;;;;;;;22.17;20.55;;;22.30;99.90;;;;;;5206893;28;20040;-70
2023/06/08 07:16:28;;;;;;;24.73;22.73;;;22.40;99.90;;;;;;5206778;28;20041;-69
2023/06/08 07:18:59;;;;;;;20.98;19.33;;;22.40;99.90;;;;;;5206773;28;20470;-70
2023/06/08 07:21:30;;;;;;;22.13;20.40;;;22.40;99.90;;;;;;5206677;28;20037;-70
2023/06/08 07:24:01;;;;;;;21.15;19.45;;;22.30;99.90;;;;;;5206739;28;20025;-70
2023/06/08 07:26:32;;;;;;;21.77;19.73;;;22.70;99.90;;;;;;5206727;28;20021;-70
2023/06/08 07:29:03;;;;;;;25.60;23.15;;;22.50;99.90;;;;;;5206698;28;20110;-68
2023/06/08 07:31:34;;;;;;;21.05;19.50;;;22.40;99.90;;;;;;5206472;28;20037;-70
2023/06/08 07:34:06;;;;;;;20.90;19.17;;;22.80;99.90;;;;;;5188767;28;20029;-70
2023/06/08 07:36:37;;;;;;;21.33;19.42;;;22.40;99.90;;;;;;5206374;28;20025;-70
2023/06/08 07:39:08;;;;;;;18.60;17.23;;;22.70;99.90;;;;;;5206428;28;20029;-70
2023/06/08 07:41:39;;;;;;;18.88;17.17;;;22.60;99.90;;;;;;5206128;28;20508;-69
2023/06/08 07:44:10;;;;;;;19.25;17.48;;;22.40;99.90;;;;;;5206836;28;20059;-70
2023/06/08 07:46:41;;;;;;;19.77;17.83;;;22.30;99.90;;;;;;5206653;28;20025;-70
2023/06/08 07:49:12;;;;;;;19.20;17.15;;;22.70;99.90;;;;;;5206374;28;20040;-70
2023/06/08 07:51:44;;;;;;;18.40;16.98;;;22.80;99.90;;;;;;5206324;28;20025;-70
2023/06/08 07:54:19;;;;;;;20.33;18.45;;;22.90;99.90;;;;;;5206235;28;20445;-69
2023/06/08 07:56:50;;;;;;;20.05;18.00;;;22.60;99.90;;;;;;5206390;28;20171;-69
2023/06/08 07:59:21;;;;;;;19.63;18.20;;;22.70;99.90;;;;;;5188535;28;20029;-70
2023/06/08 08:01:51;;;;;;;20.75;18.70;;;22.70;99.90;;;;;;5206185;28;20022;-69
2023/06/08 08:04:23;;;;;;;20.90;19.35;;;22.60;99.90;;;;;;5206082;28;20030;-70
2023/06/08 08:06:54;;;;;;;20.13;18.42;;;22.70;99.90;;;;;;5206268;28;20049;-69
2023/06/08 08:09:24;;;;;;;20.08;18.58;;;23.00;99.90;;;;;;5205987;28;20053;-69
2023/06/08 08:11:55;;;;;;;18.48;16.75;;;23.20;99.90;;;;;;5205957;28;20035;-70
2023/06/08 08:14:26;;;;;;;20.73;18.92;;;23.10;99.90;;;;;;5205955;28;20076;-70
2023/06/08 08:16:57;;;;;;;21.70;19.92;;;23.10;99.90;;;;;;5205877;28;20029;-69
2023/06/08 08:19:28;;;;;;;17.52;16.05;;;23.40;99.90;;;;;;5205834;28;20025;-71
2023/06/08 08:21:59;;;;;;;17.77;16.42;;;23.10;99.90;;;;;;5205845;28;20100;-70
2023/06/08 08:24:30;;;;;;;19.02;17.48;;;23.50;99.90;;;;;;5205867;28;20097;-70
2023/06/08 08:27:01;;;;;;;18.38;16.73;;;23.40;99.90;;;;;;5206032;28;20021;-70
2023/06/08 08:29:32;;;;;;;18.45;16.63;;;23.50;99.90;;;;;;5205310;28;20068;-70
2023/06/08 08:32:03;;;;;;;19.25;17.63;;;23.20;99.90;;;;;;5187782;28;20025;-70
2023/06/08 08:34:34;;;;;;;19.95;18.05;;;23.40;99.90;;;;;;5205678;28;20035;-70
2023/06/08 08:37:05;;;;;;;18.50;16.88;;;23.50;99.90;;;;;;5205665;28;20113;-70
2023/06/08 08:39:36;;;;;;;18.83;17.25;;;23.70;99.90;;;;;;5205602;28;20033;-69
2023/06/08 08:42:11;;;;;;;19.85;18.27;;;23.80;99.90;;;;;;5205409;28;20054;-69
2023/06/08 08:44:44;;;;;;;19.98;18.10;;;23.70;99.90;;;;;;5205457;28;20037;-68
2023/06/08 08:47:17;;;;;;;18.63;16.80;;;24.00;99.90;;;;;;5205576;28;20028;-70
2023/06/08 08:50:01;;;;;;;19.13;17.58;;;24.10;99.90;;;;;;5205453;28;20017;-70
2023/06/08 08:52:33;;;;;;;17.73;16.50;;;24.10;99.90;;;;;;5205685;28;20110;-70
2023/06/08 08:55:05;;;;;;;17.02;15.70;;;23.90;99.90;;;;;;5205416;28;20025;-70
2023/06/08 08:57:36;;;;;;;18.75;17.17;;;23.50;99.90;;;;;;5205473;28;20034;-69
2023/06/08 09:00:10;;;;;;;17.52;16.10;;;23.60;99.90;;;;;;5205455;28;20060;-69
2023/06/08 09:02:41;;;;;;;18.30;16.35;;;24.10;99.90;;;;;;5205682;28;20509;-69
2023/06/08 09:05:13;;;;;;;16.35;15.00;;;24.00;99.90;;;;;;5205834;28;20476;-70
2023/06/08 09:07:43;;;;;;;17.42;16.08;;;24.20;99.90;;;;;;5205501;28;20060;-70
2023/06/08 09:10:22;;;;;;;17.70;16.23;;;24.20;99.90;;;;;;5205493;28;20057;-70
2023/06/08 09:12:56;;;;;;;17.85;16.25;;;24.00;99.90;;;;;;5205386;28;20053;-70
2023/06/08 09:15:33;;;;;;;18.27;16.60;;;24.40;99.90;;;;;;5205318;28;20037;-70
2023/06/08 09:18:18;;;;;;;16.85;15.43;;;24.10;99.90;;;;;;5205342;28;20032;-70
2023/06/08 09:20:51;;;;;;;17.13;15.75;;;24.50;99.90;;;;;;5205316;28;20533;-70
2023/06/08 09:23:26;;;;;;;16.83;15.50;;;24.50;99.90;;;;;;5205271;28;20021;-70
2023/06/08 09:25:57;;;;;;;18.70;15.32;;;24.70;99.90;;;;;;5205290;28;20029;-68
2023/06/08 09:28:31;;;;;;;17.88;16.38;;;24.30;99.90;;;;;;5205215;28;20470;-70
2023/06/08 09:31:09;;;;;;;17.20;15.60;;;24.50;99.90;;;;;;5205088;28;20018;-70
2023/06/08 09:33:41;;;;;;;16.10;14.57;;;24.60;99.90;;;;;;5205273;28;20033;-70
2023/06/08 09:36:15;;;;;;;18.42;16.63;;;24.50;99.90;;;;;;5205168;28;20029;-70
2023/06/08 09:38:55;;;;;;;18.33;16.67;;;24.30;99.90;;;;;;5205188;28;20033;-70
2023/06/08 09:41:26;;;;;;;17.33;15.90;;;24.10;99.90;;;;;;5204790;28;20104;-70
2023/06/08 09:43:57;;;;;;;17.60;16.13;;;24.10;99.90;;;;;;5208542;28;20061;-70
2023/06/08 09:46:45;;;;;;;15.27;14.07;;;24.30;99.90;;;;;;5190683;28;20030;-70
2023/06/08 09:49:16;;;;;;;16.65;15.35;;;24.70;99.90;;;;;;5188160;28;20022;-70
2023/06/08 09:51:50;;;;;;;17.65;16.30;;;24.60;99.90;;;;;;5188116;28;20049;-70
2023/06/08 09:54:21;;;;;;;18.70;17.23;;;24.40;99.90;;;;;;5188049;28;20069;-71
2023/06/08 09:56:55;;;;;;;18.27;16.70;;;24.30;99.90;;;;;;5188022;28;20042;-70
2023/06/08 09:59:30;;;;;;;17.83;16.17;;;24.70;99.90;;;;;;5188020;28;20014;-70
2023/06/08 10:02:16;;;;;;;19.00;17.17;;;24.80;99.90;;;;;;5187829;28;20033;-70
2023/06/08 10:04:53;;;;;;;17.55;16.17;;;24.40;99.90;;;;;;5188257;28;20097;-69
2023/06/08 10:07:29;;;;;;;17.92;16.67;;;24.40;99.90;;;;;;5188066;28;20037;-69
2023/06/08 10:10:13;;;;;;;20.17;18.17;;;24.60;99.90;;;;;;5187991;28;20501;-70
2023/06/08 10:12:45;;;;;;;17.80;16.55;;;24.40;99.90;;;;;;5187833;28;20109;-69
2023/06/08 10:15:16;;;;;;;18.63;17.13;;;24.30;99.90;;;;;;5187710;28;20084;-70
2023/06/08 10:17:47;;;;;;;18.13;16.42;;;24.60;99.90;;;;;;5187721;28;20030;-70
2023/06/08 10:20:19;;;;;;;17.50;16.00;;;24.30;99.90;;;;;;5187665;28;20137;-70
2023/06/08 10:22:50;;;;;;;18.25;16.88;;;24.20;99.90;;;;;;5187651;28;20769;-70
2023/06/08 10:25:22;;;;;;;18.08;16.70;;;23.60;99.90;;;;;;5187446;28;20018;-70
2023/06/08 10:27:53;;;;;;;19.20;17.70;;;24.00;99.90;;;;;;5187453;28;20022;-70
2023/06/08 10:30:39;;;;;;;17.20;15.75;;;23.90;99.90;;;;;;5187281;28;20402;-70
2023/06/08 10:33:21;;;;;;;17.85;16.40;;;24.10;99.90;;;;;;5187423;28;20028;-70
2023/06/08 10:36:10;;;;;;;18.75;17.20;;;24.30;99.90;;;;;;5187254;28;20034;-70
2023/06/08 10:38:56;;;;;;;17.67;16.20;;;24.80;99.90;;;;;;5187362;28;20025;-70
2023/06/08 10:41:43;;;;;;;17.67;16.23;;;24.90;99.90;;;;;;5186948;28;20041;-70
2023/06/08 10:44:31;;;;;;;17.55;16.20;;;25.10;99.90;;;;;;5187215;28;20042;-71
2023/06/08 10:47:06;;;;;;;17.00;15.43;;;24.70;99.90;;;;;;5187151;28;20072;-70
2023/06/08 10:49:44;;;;;;;18.27;16.52;;;24.60;99.90;;;;;;5186972;28;20030;-70
2023/06/08 10:52:20;;;;;;;17.40;15.98;;;24.90;99.90;;;;;;5187058;28;20061;-70
2023/06/08 10:55:13;;;;;;;17.77;16.27;;;24.50;99.90;;;;;;5186385;28;20036;-70
2023/06/08 10:57:45;;;;;;;17.55;16.25;;;25.10;99.90;;;;;;5186737;28;20030;-70
2023/06/08 11:00:25;;;;;;;19.95;18.27;;;24.70;99.90;;;;;;5186646;28;20018;-69
2023/06/08 11:03:01;;;;;;;17.77;16.38;;;25.00;99.90;;;;;;5186732;28;20458;-70
2023/06/08 11:05:34;;;;;;;17.77;16.42;;;25.10;99.90;;;;;;5186727;28;20030;-70
2023/06/08 11:08:08;;;;;;;16.95;15.77;;;25.10;99.90;;;;;;5186533;28;20018;-70
2023/06/08 11:10:39;;;;;;;17.65;16.10;;;25.00;99.90;;;;;;5186428;28;20026;-69
2023/06/08 11:13:17;;;;;;;16.63;15.23;;;24.80;99.90;;;;;;5186606;28;20037;-71
2023/06/08 11:15:48;;;;;;;15.25;14.05;;;24.90;99.90;;;;;;5186508;28;20127;-70
2023/06/08 11:18:20;;;;;;;15.98;14.77;;;24.90;99.90;;;;;;5186720;28;20030;-70
2023/06/08 11:20:52;;;;;;;16.38;15.07;;;24.90;99.90;;;;;;5186483;28;20029;-70
2023/06/08 11:23:22;;;;;;;16.50;14.80;;;24.60;99.90;;;;;;5186295;28;20466;-70
2023/06/08 11:25:53;;;;;;;15.95;14.60;;;24.60;99.90;;;;;;5186325;28;20029;-70
2023/06/08 11:28:24;;;;;;;19.05;17.45;;;24.30;99.90;;;;;;5186293;28;20030;-70
2023/06/08 11:30:58;;;;;;;19.50;17.85;;;24.60;99.90;;;;;;5186165;28;20036;-71
2023/06/08 11:33:29;;;;;;;18.90;17.58;;;24.20;99.90;;;;;;5186194;28;20026;-69
2023/06/08 11:36:00;;;;;;;19.23;17.65;;;24.50;99.90;;;;;;5186050;28;20053;-70
2023/06/08 11:38:34;;;;;;;17.77;16.35;;;24.50;99.90;;;;;;5186148;28;20037;-70
2023/06/08 11:41:04;;;;;;;16.90;15.73;;;24.50;99.90;;;;;;5185977;28;20033;-70
2023/06/08 11:43:35;;;;;;;17.63;16.15;;;24.80;99.90;;;;;;5185882;28;20065;-70
2023/06/08 11:46:07;;;;;;;18.65;17.08;;;24.90;99.90;;;;;;5186210;28;20477;-70
2023/06/08 11:48:39;;;;;;;18.65;16.95;;;24.50;99.90;;;;;;5185998;28;20051;-71
2023/06/08 11:51:09;;;;;;;18.42;17.02;;;24.50;99.90;;;;;;5185869;28;20022;-70
2023/06/08 11:53:40;;;;;;;15.63;14.50;;;24.60;99.90;;;;;;5168362;28;20033;-70
2023/06/08 11:56:11;;;;;;;16.35;15.02;;;24.60;99.90;;;;;;5185744;28;20099;-70
2023/06/08 11:58:46;;;;;;;16.98;15.38;;;24.60;99.90;;;;;;5185931;28;20049;-69
2023/06/08 12:01:17;;;;;;;15.43;14.15;;;24.30;99.90;;;;;;5185761;28;20032;-70
2023/06/08 12:03:49;;;;;;;18.13;16.30;;;24.60;99.90;;;;;;5185834;28;20049;-70
2023/06/08 12:06:26;;;;;;;19.02;15.32;;;24.20;99.90;;;;;;5185004;28;20552;-70
2023/06/08 12:08:58;;;;;;;18.17;16.50;;;24.20;99.90;;;;;;5185596;28;20138;-70
2023/06/08 12:11:35;;;;;;;18.15;16.65;;;24.30;99.90;;;;;;5185542;28;20121;-70
2023/06/08 12:14:06;;;;;;;17.17;15.52;;;24.30;99.90;;;;;;5185455;28;20034;-70
2023/06/08 12:16:46;;;;;;;18.98;17.15;;;24.40;99.90;;;;;;5185498;28;20328;-70
2023/06/08 12:19:16;;;;;;;18.67;17.00;;;24.40;99.90;;;;;;5185634;28;20041;-70
2023/06/08 12:21:51;;;;;;;18.13;16.52;;;24.00;99.90;;;;;;5185652;28;20029;-70
2023/06/08 12:24:22;;;;;;;19.17;17.48;;;24.20;99.90;;;;;;5185823;28;20065;-70
2023/06/08 12:26:53;;;;;;;16.98;15.48;;;24.40;99.90;;;;;;5185640;28;20478;-70
2023/06/08 12:29:24;;;;;;;18.17;16.65;;;24.50;99.90;;;;;;5185466;28;20022;-69
2023/06/08 12:31:55;;;;;;;19.27;17.45;;;24.20;99.90;;;;;;5185386;28;20080;-70
2023/06/08 12:34:30;;;;;;;17.95;16.45;;;24.40;99.90;;;;;;5185324;28;20474;-70
2023/06/08 12:37:00;;;;;;;17.30;15.95;;;24.20;99.90;;;;;;5185433;28;20117;-70
2023/06/08 12:39:31;;;;;;;18.15;16.80;;;24.40;99.90;;;;;;5185360;28;20101;-70
2023/06/08 12:42:02;;;;;;;18.38;16.52;;;24.50;99.90;;;;;;5185034;28;20046;-70
2023/06/08 12:44:33;;;;;;;20.40;18.85;;;24.70;99.90;;;;;;5185173;28;20112;-70
2023/06/08 12:47:04;;;;;;;18.02;16.67;;;24.90;99.90;;;;;;5185341;28;20108;-68
2023/06/08 12:49:35;;;;;;;19.35;17.63;;;24.90;99.90;;;;;;5185293;28;20554;-69
2023/06/08 12:52:06;;;;;;;16.88;15.30;;;24.80;99.90;;;;;;5185209;28;20018;-70
2023/06/08 12:54:37;;;;;;;17.15;15.70;;;24.60;99.90;;;;;;5185126;28;20179;-70
2023/06/08 12:57:08;;;;;;;15.50;14.15;;;24.60;99.90;;;;;;5185006;28;20034;-71